createdAt,value
2019-01-31T00:00:01.707Z,12.63
2019-01-31T00:02:16.049Z,10.03
2019-01-31T00:04:42.697Z,8.00
2019-01-31T00:07:06.044Z,7.07
2019-01-31T00:09:21.636Z,10.13
2019-01-31T00:11:34.005Z,9.20
2019-01-31T00:13:53.399Z,10.03
2019-01-31T00:16:11.880Z,8.70
2019-01-31T00:18:24.088Z,8.30
2019-01-31T00:20:47.632Z,6.63
2019-01-31T00:23:09.504Z,11.90
2019-01-31T00:25:21.796Z,5.87
2019-01-31T00:27:46.627Z,6.87
2019-01-31T00:30:08.401Z,12.73
2019-01-31T00:32:32.040Z,11.80
2019-01-31T00:34:50.484Z,12.30
2019-01-31T00:37:30.327Z,16.23
2019-01-31T00:39:51.231Z,11.90
2019-01-31T00:42:09.880Z,18.47
2019-01-31T00:44:35.015Z,9.57
2019-01-31T00:46:44.190Z,6.90
2019-01-31T00:49:06.245Z,6.53
2019-01-31T00:51:22.309Z,4.17
2019-01-31T00:53:28.962Z,7.30
2019-01-31T00:55:38.719Z,7.10
2019-01-31T00:57:50.966Z,6.77
2019-01-31T01:00:10.877Z,7.23
2019-01-31T01:02:27.032Z,9.80
2019-01-31T01:04:33.749Z,7.43
2019-01-31T01:07:09.535Z,11.57
2019-01-31T01:09:17.676Z,9.23
2019-01-31T01:11:36.285Z,5.90
2019-01-31T01:13:45.617Z,8.77
2019-01-31T01:15:52.354Z,12.73
2019-01-31T01:17:59.057Z,10.43
2019-01-31T01:20:17.862Z,8.77
2019-01-31T01:22:28.992Z,7.40
2019-01-31T01:24:47.419Z,12.90
2019-01-31T01:27:00.108Z,8.23
2019-01-31T01:29:12.600Z,8.03
2019-01-31T01:31:38.907Z,9.10
2019-01-31T01:33:54.490Z,11.93
2019-01-31T01:36:19.660Z,7.87
2019-01-31T01:38:38.215Z,11.23
2019-01-31T01:40:53.572Z,17.30
2019-01-31T01:43:34.956Z,18.83
2019-01-31T01:45:53.474Z,13.43
2019-01-31T01:48:08.922Z,15.43
2019-01-31T01:50:24.684Z,11.67
2019-01-31T01:52:43.390Z,9.67
2019-01-31T01:55:05.473Z,11.13
2019-01-31T01:57:21.049Z,10.63
2019-01-31T01:59:27.721Z,17.57
2019-01-31T02:01:43.453Z,16.83
2019-01-31T02:03:50.133Z,16.60
2019-01-31T02:06:13.630Z,12.70
2019-01-31T02:08:29.340Z,14.83
2019-01-31T02:10:42.487Z,13.60
2019-01-31T02:13:04.411Z,13.93
2019-01-31T02:15:19.679Z,11.40
2019-01-31T02:17:38.665Z,9.33
2019-01-31T02:20:19.140Z,8.13
2019-01-31T02:22:45.316Z,7.07
2019-01-31T02:24:52.223Z,9.10
2019-01-31T02:27:07.765Z,9.70
2019-01-31T02:29:26.405Z,15.03
2019-01-31T02:31:46.746Z,12.90
2019-01-31T02:34:20.674Z,13.20
2019-01-31T02:36:42.478Z,8.80
2019-01-31T02:39:19.421Z,10.73
2019-01-31T02:41:51.567Z,8.67
2019-01-31T02:44:13.209Z,18.73
2019-01-31T02:46:22.763Z,5.60
2019-01-31T02:48:47.513Z,8.43
2019-01-31T02:51:06.482Z,8.53
2019-01-31T02:53:25.318Z,9.40
2019-01-31T02:55:40.832Z,8.10
2019-01-31T02:58:14.961Z,13.50
2019-01-31T03:00:27.676Z,11.93
2019-01-31T03:02:40.205Z,8.33
2019-01-31T03:05:02.080Z,9.43
2019-01-31T03:07:08.853Z,6.73
2019-01-31T03:09:20.113Z,7.27
2019-01-31T03:11:26.862Z,9.90
2019-01-31T03:13:33.697Z,8.97
2019-01-31T03:15:59.771Z,6.43
2019-01-31T03:18:09.311Z,7.43
2019-01-31T03:20:18.667Z,9.70
2019-01-31T03:22:43.208Z,10.13
2019-01-31T03:25:13.942Z,7.97
2019-01-31T03:27:41.833Z,23.53
2019-01-31T03:30:24.786Z,5.80
2019-01-31T03:32:42.243Z,7.83
2019-01-31T03:34:54.667Z,8.47
2019-01-31T03:37:10.004Z,7.80
2019-01-31T03:39:28.826Z,7.60
2019-01-31T03:41:56.481Z,7.30
2019-01-31T03:44:15.510Z,6.80
2019-01-31T03:46:31.062Z,7.10
2019-01-31T03:48:46.484Z,10.43
2019-01-31T03:51:11.306Z,11.10
2019-01-31T03:53:42.038Z,14.77
2019-01-31T03:56:03.887Z,12.40
2019-01-31T03:58:10.606Z,13.13
2019-01-31T04:00:17.294Z,8.37
2019-01-31T04:02:29.485Z,5.27
2019-01-31T04:04:46.676Z,11.87
2019-01-31T04:06:51.999Z,5.60
2019-01-31T04:08:55.789Z,10.00
2019-01-31T04:10:59.591Z,10.77
2019-01-31T04:13:03.393Z,7.80
2019-01-31T04:15:10.860Z,7.80
2019-01-31T04:17:14.425Z,7.03
2019-01-31T04:19:18.292Z,8.67
2019-01-31T04:21:22.114Z,4.77
2019-01-31T04:23:25.770Z,5.60
2019-01-31T04:25:29.560Z,6.37
2019-01-31T04:27:33.304Z,4.70
2019-01-31T04:29:36.994Z,6.13
2019-01-31T04:31:40.754Z,11.90
2019-01-31T04:33:44.445Z,5.87
2019-01-31T04:35:49.879Z,12.00
2019-01-31T04:37:53.682Z,4.97
2019-01-31T04:39:57.366Z,5.33
2019-01-31T04:42:01.125Z,12.17
2019-01-31T04:44:05.230Z,6.57
2019-01-31T04:46:08.880Z,5.07
2019-01-31T04:48:12.918Z,10.77
2019-01-31T04:50:16.801Z,6.30
2019-01-31T04:52:20.521Z,6.10
2019-01-31T04:54:24.350Z,9.37
2019-01-31T04:56:28.192Z,10.60
2019-01-31T04:58:31.995Z,6.67
2019-01-31T05:00:35.745Z,10.27
2019-01-31T05:02:40.580Z,11.70
2019-01-31T05:04:44.179Z,4.57
2019-01-31T05:06:47.938Z,13.73
2019-01-31T05:08:51.724Z,10.57
2019-01-31T05:10:55.628Z,14.33
2019-01-31T05:12:59.229Z,9.10
2019-01-31T05:15:03.066Z,8.20
2019-01-31T05:17:07.004Z,8.80
2019-01-31T05:19:10.891Z,10.70
2019-01-31T05:21:14.645Z,10.97
2019-01-31T05:23:18.338Z,7.33
2019-01-31T05:25:22.261Z,6.07
2019-01-31T05:27:28.177Z,8.60
2019-01-31T05:29:31.509Z,11.60
2019-01-31T05:31:35.313Z,8.23
2019-01-31T05:33:38.975Z,5.50
2019-01-31T05:35:42.649Z,9.40
2019-01-31T05:37:46.423Z,6.10
2019-01-31T05:39:50.071Z,4.73
2019-01-31T05:41:53.841Z,11.67
2019-01-31T05:43:57.461Z,5.47
2019-01-31T05:46:01.193Z,11.13
2019-01-31T05:48:05.082Z,6.83
2019-01-31T05:50:14.532Z,6.37
2019-01-31T05:52:18.309Z,6.40
2019-01-31T05:54:22.334Z,9.40
2019-01-31T05:56:26.157Z,10.60
2019-01-31T05:58:29.863Z,17.13
2019-01-31T06:00:35.271Z,7.53
2019-01-31T06:02:39.533Z,7.63
2019-01-31T06:04:43.346Z,6.53
2019-01-31T06:06:47.515Z,9.10
2019-01-31T06:08:51.473Z,13.73
2019-01-31T06:11:06.817Z,10.97
2019-01-31T06:13:00.744Z,11.17
2019-01-31T06:15:16.693Z,13.50
2019-01-31T06:17:20.446Z,11.77
2019-01-31T06:19:24.375Z,9.20
2019-01-31T06:21:28.252Z,10.03
2019-01-31T06:23:32.005Z,10.87
2019-01-31T06:25:37.190Z,9.43
2019-01-31T06:27:41.068Z,8.53
2019-01-31T06:29:44.821Z,8.90
2019-01-31T06:31:48.562Z,10.10
2019-01-31T06:33:52.364Z,11.00
2019-01-31T06:35:56.203Z,11.13
2019-01-31T06:37:59.931Z,7.17
2019-01-31T06:40:05.184Z,10.00
2019-01-31T06:42:09.064Z,5.40
2019-01-31T06:44:13.114Z,16.53
2019-01-31T06:46:17.089Z,9.00
2019-01-31T06:48:21.048Z,10.30
2019-01-31T06:50:24.924Z,11.40
2019-01-31T06:52:31.517Z,9.23
2019-01-31T06:54:35.475Z,13.10
2019-01-31T06:56:39.281Z,20.20
2019-01-31T06:58:43.211Z,13.53
2019-01-31T07:00:47.076Z,14.83
2019-01-31T07:02:51.219Z,9.10
2019-01-31T07:04:55.114Z,9.03
2019-01-31T07:06:59.018Z,10.07
2019-01-31T07:09:03.812Z,9.37
2019-01-31T07:11:07.817Z,8.80
2019-01-31T07:13:11.853Z,9.83
2019-01-31T07:15:15.840Z,7.93
2019-01-31T07:17:19.856Z,6.07
2019-01-31T07:19:24.090Z,12.60
2019-01-31T07:21:27.989Z,13.20
2019-01-31T07:23:31.899Z,17.37
2019-01-31T07:25:35.829Z,13.67
2019-01-31T07:27:39.566Z,10.83
2019-01-31T07:29:43.547Z,10.30
2019-01-31T07:31:47.482Z,7.20
2019-01-31T07:33:51.393Z,5.53
2019-01-31T07:35:55.309Z,9.63
2019-01-31T07:37:59.520Z,8.17
2019-01-31T07:40:04.051Z,13.10
2019-01-31T07:42:07.892Z,22.13
2019-01-31T07:44:11.799Z,22.33
2019-01-31T07:46:15.812Z,23.43
2019-01-31T07:48:19.871Z,15.30
2019-01-31T07:50:23.752Z,13.83
2019-01-31T07:52:27.532Z,10.33
2019-01-31T07:54:31.445Z,11.50
2019-01-31T07:56:35.358Z,16.47
2019-01-31T07:58:39.326Z,11.10
2019-01-31T08:00:43.218Z,8.63
2019-01-31T08:02:47.158Z,13.80
2019-01-31T08:04:51.090Z,9.30
2019-01-31T08:06:55.003Z,11.50
2019-01-31T08:08:58.893Z,15.67
2019-01-31T08:11:02.871Z,23.10
2019-01-31T08:13:08.876Z,25.37
2019-01-31T08:15:16.131Z,19.00
2019-01-31T08:17:20.107Z,31.03
2019-01-31T08:19:23.944Z,17.93
2019-01-31T08:21:27.929Z,21.93
2019-01-31T08:23:32.014Z,23.97
2019-01-31T08:25:35.971Z,17.03
2019-01-31T08:27:39.865Z,14.80
2019-01-31T08:29:43.707Z,19.73
2019-01-31T08:31:50.714Z,22.97
2019-01-31T08:33:54.615Z,15.37
2019-01-31T08:35:58.533Z,13.33
2019-01-31T08:38:02.467Z,11.00
2019-01-31T08:40:09.981Z,13.03
2019-01-31T08:42:13.950Z,10.70
2019-01-31T08:44:17.897Z,13.80
2019-01-31T08:46:21.878Z,11.93
2019-01-31T08:48:25.650Z,9.53
2019-01-31T08:50:30.983Z,6.87
2019-01-31T08:52:34.894Z,8.13
2019-01-31T08:54:40.090Z,8.07
2019-01-31T08:56:44.014Z,7.17
2019-01-31T08:58:47.948Z,15.30
2019-01-31T09:00:51.778Z,7.07
2019-01-31T09:02:55.819Z,9.33
2019-01-31T09:04:59.810Z,5.80
2019-01-31T09:07:03.747Z,6.10
2019-01-31T09:09:09.927Z,8.57
2019-01-31T09:11:13.828Z,9.37
2019-01-31T09:13:17.634Z,5.73
2019-01-31T09:15:23.309Z,4.53
2019-01-31T09:17:27.289Z,5.50
2019-01-31T09:19:31.367Z,5.17
2019-01-31T09:21:37.930Z,6.80
2019-01-31T09:24:02.861Z,5.87
2019-01-31T09:26:15.425Z,5.77
2019-01-31T09:28:25.257Z,4.23
2019-01-31T09:30:53.318Z,4.20
2019-01-31T09:33:15.161Z,3.47
2019-01-31T09:35:21.895Z,4.00
2019-01-31T09:37:47.809Z,2.93
2019-01-31T09:40:11.062Z,3.37
2019-01-31T09:42:26.618Z,2.80
2019-01-31T09:44:46.938Z,3.87
2019-01-31T09:47:15.079Z,2.70
2019-01-31T09:49:45.280Z,2.90
2019-01-31T09:51:54.825Z,2.60
2019-01-31T09:54:01.662Z,3.20
2019-01-31T09:56:34.723Z,2.80
2019-01-31T09:59:09.596Z,4.03
2019-01-31T10:01:40.584Z,3.00
2019-01-31T10:03:56.332Z,3.03
2019-01-31T10:06:20.912Z,3.43
2019-01-31T10:08:33.350Z,4.23
2019-01-31T10:10:52.347Z,3.30
2019-01-31T10:13:18.985Z,3.60
2019-01-31T10:15:45.295Z,3.47
2019-01-31T10:18:00.986Z,3.10
2019-01-31T10:20:16.146Z,3.83
2019-01-31T10:22:45.397Z,6.07
2019-01-31T10:25:04.505Z,3.03
2019-01-31T10:27:27.729Z,4.60
2019-01-31T10:29:53.126Z,5.27
2019-01-31T10:32:12.062Z,2.67
2019-01-31T10:34:22.909Z,3.50
2019-01-31T10:36:32.614Z,3.20
2019-01-31T10:38:54.820Z,2.80
2019-01-31T10:41:19.621Z,2.90
2019-01-31T10:43:32.071Z,3.07
2019-01-31T10:45:38.959Z,2.90
2019-01-31T10:48:03.913Z,3.83
2019-01-31T10:50:13.806Z,3.20
2019-01-31T10:52:29.308Z,3.27
2019-01-31T10:54:46.960Z,3.30
2019-01-31T10:57:05.756Z,2.97
2019-01-31T10:59:15.080Z,2.73
2019-01-31T11:01:27.691Z,2.57
2019-01-31T11:03:43.256Z,5.67
2019-01-31T11:05:56.147Z,2.60
2019-01-31T11:08:03.077Z,2.90
2019-01-31T11:10:26.567Z,3.33
2019-01-31T11:12:42.445Z,3.20
2019-01-31T11:15:19.719Z,2.87
2019-01-31T11:17:35.417Z,3.03
2019-01-31T11:20:00.337Z,3.20
2019-01-31T11:22:25.591Z,3.07
2019-01-31T11:24:47.519Z,4.67
2019-01-31T11:26:58.181Z,5.80
2019-01-31T11:29:05.149Z,6.63
2019-01-31T11:31:14.796Z,5.20
2019-01-31T11:33:30.100Z,4.10
2019-01-31T11:35:45.686Z,4.77
2019-01-31T11:37:55.090Z,3.53
2019-01-31T11:40:17.043Z,3.90
2019-01-31T11:42:38.981Z,5.27
2019-01-31T11:44:48.258Z,4.90
2019-01-31T11:46:57.911Z,5.00
2019-01-31T11:49:04.761Z,4.20
2019-01-31T11:51:45.093Z,5.63
2019-01-31T11:54:13.120Z,5.00
2019-01-31T11:56:28.806Z,3.40
2019-01-31T11:58:50.021Z,3.53
2019-01-31T12:00:53.925Z,2.90
2019-01-31T12:02:58.425Z,2.77
2019-01-31T12:05:02.243Z,2.97
2019-01-31T12:07:06.201Z,3.43
2019-01-31T12:09:12.055Z,2.97
2019-01-31T12:11:15.986Z,3.53
2019-01-31T12:13:23.593Z,3.20
2019-01-31T12:15:25.427Z,4.33
2019-01-31T12:17:29.339Z,3.00
2019-01-31T12:19:33.215Z,3.10
2019-01-31T12:21:37.202Z,3.57
2019-01-31T12:23:41.138Z,3.07
2019-01-31T12:25:45.004Z,3.50
2019-01-31T12:27:48.985Z,5.97
2019-01-31T12:29:52.922Z,4.27
2019-01-31T12:31:58.297Z,4.43
2019-01-31T12:34:02.361Z,5.60
2019-01-31T12:36:07.025Z,4.90
2019-01-31T12:38:10.938Z,4.40
2019-01-31T12:40:17.379Z,7.13
2019-01-31T12:42:21.505Z,4.57
2019-01-31T12:44:25.255Z,6.00
2019-01-31T12:46:29.140Z,3.50
2019-01-31T12:48:33.021Z,4.53
2019-01-31T12:50:37.068Z,5.57
2019-01-31T12:52:40.964Z,4.80
2019-01-31T12:54:45.129Z,5.50
2019-01-31T12:56:49.141Z,6.57
2019-01-31T12:58:53.126Z,7.03
2019-01-31T13:00:56.940Z,6.77
2019-01-31T13:03:03.211Z,7.67
2019-01-31T13:05:08.945Z,8.33
2019-01-31T13:07:13.623Z,5.43
2019-01-31T13:09:17.484Z,6.43
2019-01-31T13:11:21.357Z,5.47
2019-01-31T13:13:25.286Z,7.53
2019-01-31T13:15:29.563Z,6.70
2019-01-31T13:17:33.897Z,6.27
2019-01-31T13:19:37.800Z,5.07
2019-01-31T13:21:41.553Z,5.17
2019-01-31T13:23:45.389Z,5.90
2019-01-31T13:25:49.243Z,12.37
2019-01-31T13:27:53.331Z,8.07
2019-01-31T13:29:57.147Z,5.30
2019-01-31T13:32:00.977Z,7.67
2019-01-31T13:34:05.366Z,5.90
2019-01-31T13:36:13.766Z,8.83
2019-01-31T13:38:17.721Z,7.33
2019-01-31T13:40:23.780Z,8.47
2019-01-31T13:42:27.533Z,7.20
2019-01-31T13:44:31.452Z,7.10
2019-01-31T13:46:35.251Z,7.50
2019-01-31T13:48:39.177Z,7.90
2019-01-31T13:50:42.964Z,8.07
2019-01-31T13:52:46.731Z,8.37
2019-01-31T13:54:50.596Z,6.47
2019-01-31T13:56:54.337Z,6.47
2019-01-31T13:58:58.072Z,5.83
2019-01-31T14:01:01.715Z,5.00
2019-01-31T14:03:05.789Z,7.20
2019-01-31T14:05:09.666Z,7.50
2019-01-31T14:07:13.392Z,7.03
2019-01-31T14:09:17.212Z,5.90
2019-01-31T14:11:20.927Z,6.27
2019-01-31T14:13:24.453Z,5.57
2019-01-31T14:15:34.190Z,7.63
2019-01-31T14:17:38.176Z,8.50
2019-01-31T14:19:41.971Z,6.47
2019-01-31T14:21:45.629Z,8.93
2019-01-31T14:23:49.265Z,9.30
2019-01-31T14:25:53.026Z,7.17
2019-01-31T14:27:56.803Z,4.53
2019-01-31T14:30:02.622Z,5.23
2019-01-31T14:32:06.455Z,9.50
2019-01-31T14:34:10.285Z,6.93
2019-01-31T14:36:14.089Z,7.60
2019-01-31T14:38:17.910Z,8.17
2019-01-31T14:40:21.843Z,5.97
2019-01-31T14:42:25.550Z,5.50
2019-01-31T14:44:29.431Z,5.23
2019-01-31T14:46:33.248Z,5.60
2019-01-31T14:48:37.011Z,4.07
2019-01-31T14:50:40.754Z,5.47
2019-01-31T14:52:44.491Z,7.20
2019-01-31T14:54:48.245Z,5.37
2019-01-31T14:56:52.134Z,8.10
2019-01-31T14:58:55.843Z,5.10
2019-01-31T15:01:01.881Z,7.17
2019-01-31T15:03:05.889Z,6.80
2019-01-31T15:05:12.859Z,6.10
2019-01-31T15:07:16.490Z,5.00
2019-01-31T15:09:20.242Z,9.33
2019-01-31T15:11:23.986Z,5.40
2019-01-31T15:13:27.753Z,8.03
2019-01-31T15:15:31.397Z,9.67
2019-01-31T15:17:35.107Z,11.63
2019-01-31T15:19:38.829Z,8.23
2019-01-31T15:21:42.659Z,9.73
2019-01-31T15:23:46.420Z,8.00
2019-01-31T15:25:50.146Z,11.00
2019-01-31T15:27:53.862Z,8.83
2019-01-31T15:29:57.504Z,11.77
2019-01-31T15:32:01.280Z,12.03
2019-01-31T15:34:05.398Z,10.40
2019-01-31T15:36:09.187Z,11.93
2019-01-31T15:38:13.051Z,15.13
2019-01-31T15:40:23.058Z,13.10
2019-01-31T15:42:26.779Z,13.97
2019-01-31T15:44:30.558Z,15.63
2019-01-31T15:46:34.331Z,17.93
2019-01-31T15:48:38.065Z,9.90
2019-01-31T15:50:41.797Z,8.57
2019-01-31T15:52:45.624Z,8.77
2019-01-31T15:54:49.389Z,11.17
2019-01-31T15:56:53.107Z,9.10
2019-01-31T15:58:56.763Z,10.77
2019-01-31T16:01:00.752Z,11.17
2019-01-31T16:03:04.956Z,13.27
2019-01-31T16:05:18.786Z,11.33
2019-01-31T16:07:14.329Z,11.13
2019-01-31T16:09:18.133Z,11.27
2019-01-31T16:11:21.893Z,9.90
2019-01-31T16:13:25.714Z,8.97
2019-01-31T16:15:29.581Z,12.13
2019-01-31T16:17:33.377Z,12.37
2019-01-31T16:19:37.198Z,8.00
2019-01-31T16:21:40.900Z,9.83
2019-01-31T16:23:44.609Z,7.03
2019-01-31T16:25:48.359Z,7.53
2019-01-31T16:27:52.205Z,9.20
2019-01-31T16:29:55.936Z,6.73
2019-01-31T16:31:59.673Z,8.13
2019-01-31T16:34:03.401Z,10.27
2019-01-31T16:36:07.447Z,9.27
2019-01-31T16:38:13.279Z,13.20
2019-01-31T16:40:19.631Z,10.70
2019-01-31T16:42:24.926Z,9.47
2019-01-31T16:44:30.281Z,10.30
2019-01-31T16:46:37.847Z,9.47
2019-01-31T16:48:42.741Z,12.20
2019-01-31T16:50:47.927Z,11.47
2019-01-31T16:52:53.254Z,9.07
2019-01-31T16:54:58.850Z,9.93
2019-01-31T16:57:09.303Z,10.17
2019-01-31T16:59:14.651Z,12.50
2019-01-31T17:01:20.111Z,9.20
2019-01-31T17:03:25.198Z,10.40
2019-01-31T17:05:31.923Z,14.50
2019-01-31T17:07:36.498Z,12.07
2019-01-31T17:09:41.036Z,9.50
2019-01-31T17:11:44.903Z,11.10
2019-01-31T17:13:49.798Z,12.87
2019-01-31T17:15:53.641Z,19.47
2019-01-31T17:17:57.406Z,21.60
2019-01-31T17:20:01.635Z,21.47
2019-01-31T17:22:06.611Z,24.33
2019-01-31T17:24:10.625Z,23.63
2019-01-31T17:26:14.455Z,24.30
2019-01-31T17:28:18.176Z,23.93
2019-01-31T17:30:23.995Z,23.07
2019-01-31T17:32:27.781Z,25.77
2019-01-31T17:34:31.767Z,26.90
2019-01-31T17:36:35.563Z,23.23
2019-01-31T17:38:39.447Z,15.13
2019-01-31T17:40:43.238Z,13.30
2019-01-31T17:42:47.053Z,15.90
2019-01-31T17:44:51.274Z,16.30
2019-01-31T17:46:55.461Z,12.57
2019-01-31T17:48:59.330Z,15.47
2019-01-31T17:51:04.151Z,19.40
2019-01-31T17:53:08.356Z,16.57
2019-01-31T17:55:15.352Z,17.00
2019-01-31T17:57:19.502Z,12.50
2019-01-31T17:59:23.697Z,14.80
2019-01-31T18:01:27.804Z,16.17
2019-01-31T18:03:31.900Z,16.47
2019-01-31T18:05:35.971Z,13.83
2019-01-31T18:07:40.584Z,16.57
2019-01-31T18:09:44.729Z,13.30
2019-01-31T18:11:48.534Z,12.93
2019-01-31T18:13:53.597Z,11.17
2019-01-31T18:15:57.466Z,15.90
2019-01-31T18:18:01.908Z,10.27
2019-01-31T18:20:17.944Z,8.87
2019-01-31T18:22:21.752Z,8.23
2019-01-31T18:24:25.840Z,7.53
2019-01-31T18:26:29.756Z,8.17
2019-01-31T18:28:33.634Z,8.07
2019-01-31T18:30:38.217Z,9.17
2019-01-31T18:32:41.966Z,7.73
2019-01-31T18:34:45.771Z,10.00
2019-01-31T18:36:49.620Z,8.63
2019-01-31T18:38:57.544Z,7.33
2019-01-31T18:41:02.212Z,9.33
2019-01-31T18:43:06.403Z,11.93
2019-01-31T18:45:13.562Z,8.80
2019-01-31T18:47:17.463Z,10.07
2019-01-31T18:49:21.131Z,8.73
2019-01-31T18:51:25.245Z,9.23
2019-01-31T18:53:29.011Z,11.50
2019-01-31T18:55:33.615Z,11.53
2019-01-31T18:57:37.333Z,13.90
2019-01-31T18:59:41.930Z,10.00
2019-01-31T19:01:46.349Z,11.13
2019-01-31T19:03:50.137Z,10.13
2019-01-31T19:05:54.094Z,14.80
2019-01-31T19:07:58.689Z,10.57
2019-01-31T19:10:02.928Z,12.23
2019-01-31T19:12:07.439Z,10.30
2019-01-31T19:14:14.292Z,12.13
2019-01-31T19:16:17.119Z,9.70
2019-01-31T19:18:20.939Z,10.93
2019-01-31T19:20:32.131Z,11.13
2019-01-31T19:22:35.988Z,13.13
2019-01-31T19:24:40.255Z,10.23
2019-01-31T19:26:44.027Z,10.80
2019-01-31T19:28:49.253Z,14.77
2019-01-31T19:30:53.122Z,9.20
2019-01-31T19:32:57.248Z,12.57
2019-01-31T19:35:01.013Z,13.30
2019-01-31T19:37:06.776Z,13.83
2019-01-31T19:39:12.744Z,12.07
2019-01-31T19:41:16.490Z,14.03
2019-01-31T19:43:22.806Z,12.40
2019-01-31T19:45:29.965Z,14.83
2019-01-31T19:47:34.378Z,11.63
2019-01-31T19:49:39.263Z,18.70
2019-01-31T19:51:43.036Z,17.17
2019-01-31T19:53:48.446Z,19.57
2019-01-31T19:55:53.370Z,16.53
2019-01-31T19:57:57.688Z,19.37
2019-01-31T20:00:02.315Z,15.20
2019-01-31T20:02:08.782Z,14.43
2019-01-31T20:04:13.287Z,20.10
2019-01-31T20:06:17.959Z,16.67
2019-01-31T20:08:23.143Z,13.97
2019-01-31T20:10:30.538Z,17.00
2019-01-31T20:12:35.372Z,16.73
2019-01-31T20:14:39.696Z,20.03
2019-01-31T20:16:43.346Z,17.07
2019-01-31T20:18:47.660Z,15.60
2019-01-31T20:20:51.504Z,14.97
2019-01-31T20:22:56.989Z,16.00
2019-01-31T20:25:01.586Z,16.00
2019-01-31T20:27:06.659Z,14.77
2019-01-31T20:29:10.600Z,17.90
2019-01-31T20:31:14.420Z,16.60
2019-01-31T20:33:19.152Z,16.80
2019-01-31T20:35:24.088Z,15.27
2019-01-31T20:37:27.904Z,22.70
2019-01-31T20:39:32.064Z,18.30
2019-01-31T20:41:36.269Z,15.63
2019-01-31T20:43:40.079Z,14.70
2019-01-31T20:45:47.371Z,20.43
2019-01-31T20:47:51.615Z,16.93
2019-01-31T20:49:56.146Z,15.60
2019-01-31T20:52:00.074Z,21.17
2019-01-31T20:54:04.264Z,15.77
2019-01-31T20:56:08.455Z,13.70
2019-01-31T20:58:12.390Z,13.00
2019-01-31T21:00:24.131Z,12.23
2019-01-31T21:02:30.314Z,13.27
2019-01-31T21:04:37.085Z,16.20
2019-01-31T21:06:41.539Z,13.93
2019-01-31T21:08:44.915Z,10.93
2019-01-31T21:10:48.840Z,10.13
2019-01-31T21:12:52.635Z,13.67
2019-01-31T21:14:56.426Z,10.10
2019-01-31T21:17:00.165Z,11.60
2019-01-31T21:19:03.918Z,9.67
2019-01-31T21:21:07.624Z,9.33
2019-01-31T21:23:11.436Z,9.60
2019-01-31T21:25:17.136Z,8.30
2019-01-31T21:27:20.814Z,10.77
2019-01-31T21:29:24.511Z,11.00
2019-01-31T21:31:28.225Z,12.00
2019-01-31T21:33:31.968Z,8.57
2019-01-31T21:35:36.023Z,8.23
2019-01-31T21:37:39.856Z,12.27
2019-01-31T21:39:43.690Z,7.03
2019-01-31T21:41:47.443Z,7.23
2019-01-31T21:43:51.153Z,6.30
2019-01-31T21:45:54.842Z,8.37
2019-01-31T21:47:58.564Z,9.10
2019-01-31T21:50:02.378Z,7.27
2019-01-31T21:52:06.124Z,5.57
2019-01-31T21:54:09.938Z,8.20
2019-01-31T21:56:13.670Z,6.57
2019-01-31T21:58:17.415Z,5.97
2019-01-31T22:00:23.330Z,6.07
2019-01-31T22:02:27.094Z,8.53
2019-01-31T22:04:30.842Z,9.10
2019-01-31T22:06:34.643Z,10.17
2019-01-31T22:08:38.431Z,6.40
2019-01-31T22:10:42.191Z,6.43
2019-01-31T22:12:46.044Z,5.10
2019-01-31T22:14:51.779Z,4.87
2019-01-31T22:16:55.308Z,5.60
2019-01-31T22:18:59.087Z,5.73
2019-01-31T22:21:02.845Z,5.33
2019-01-31T22:23:06.558Z,5.97
2019-01-31T22:25:13.416Z,6.40
2019-01-31T22:27:17.203Z,5.77
2019-01-31T22:29:20.934Z,5.90
2019-01-31T22:31:26.408Z,5.73
2019-01-31T22:33:30.203Z,6.90
2019-01-31T22:35:34.088Z,6.97
2019-01-31T22:37:37.943Z,10.10
2019-01-31T22:39:41.681Z,5.90
2019-01-31T22:41:45.503Z,6.77
2019-01-31T22:43:49.142Z,10.87
2019-01-31T22:45:52.954Z,10.60
2019-01-31T22:47:56.819Z,6.00
2019-01-31T22:50:00.643Z,7.40
2019-01-31T22:52:04.617Z,7.50
2019-01-31T22:54:08.527Z,6.80
2019-01-31T22:56:12.202Z,7.43
2019-01-31T22:58:16.006Z,10.07
2019-01-31T23:00:30.174Z,7.80
2019-01-31T23:02:33.900Z,8.53
2019-01-31T23:04:37.793Z,9.03
2019-01-31T23:06:41.525Z,9.47
2019-01-31T23:08:46.363Z,9.40
2019-01-31T23:10:50.032Z,7.30
2019-01-31T23:12:56.736Z,12.53
2019-01-31T23:15:00.523Z,8.77
2019-01-31T23:17:04.708Z,9.07
2019-01-31T23:19:08.572Z,7.23
2019-01-31T23:21:12.375Z,8.60
2019-01-31T23:23:16.120Z,7.50
2019-01-31T23:25:19.924Z,12.60
2019-01-31T23:27:23.635Z,10.23
2019-01-31T23:29:27.333Z,8.93
2019-01-31T23:31:31.049Z,8.27
2019-01-31T23:33:34.821Z,10.77
2019-01-31T23:35:38.518Z,7.37
2019-01-31T23:37:43.927Z,10.90
2019-01-31T23:39:47.700Z,10.70
2019-01-31T23:41:51.414Z,15.53
2019-01-31T23:43:55.469Z,9.37
2019-01-31T23:45:59.183Z,8.20
2019-01-31T23:48:02.973Z,8.50
2019-01-31T23:50:10.076Z,9.33
2019-01-31T23:52:14.185Z,11.13
2019-01-31T23:54:18.047Z,9.47
2019-01-31T23:56:21.775Z,8.53
2019-01-31T23:58:25.459Z,9.40
